To NAV CANADA Home Page Login to a new session Search on AWWS site Feedback and Comments Disclaimer Vers la page française équivalente Tips FAQ What's new on the site To the Forecasts and Observations / NOTAM section To "File a Flight Plan" website Publications and other links Update of the User's profile FIC Telephone Numbers My Weather Data Folder Route Weather Data Regional Weather Data Local Weather Data To the Forecasts and Observations / NOTAM section
Request Generated 06/26/2017 at 22:32:50 UTC . Weather information available at that time is displayed.

METAR/TAF

EARLTON/EARLTON (TIMISKAMING REGIONAL)/ON    (show WxCam)

SPECI CYXR 262230Z AUTO 18007KT 9SM -RA BKN065 OVC078 17/09 A2990 RMK
SLP130 DENSITY ALT 1100FT=
METAR CYXR 262200Z AUTO 15005KT 100V180 9SM OVC065 17/08 A2990 RMK
SLP131 DENSITY ALT 1200FT=
METAR CYXR 262100Z AUTO 16003KT 080V190 9SM OVC065 17/06 A2990 RMK
SLP133 DENSITY ALT 1200FT=
METAR CYXR 262000Z AUTO 16003KT 9SM OVC070 17/05 A2992 RMK SLP139
DENSITY ALT 1100FT=

TAF CYXR 261738Z 2618/2624 15010KT P6SM BKN060
FM262300 24005KT P6SM FEW040 BKN100
RMK FCST BASED ON AUTO OBS. NXT FCST WILL BE ISSUED AT 271145Z=
Your time UTC time
Weather data provided by Environment Canada and NAV CANADA